Time;durP1;ratioP1;P1;durP2;ratioP2;P2;SDS_P1;SDS_P2;PMS_P1;PMS_P2;Temp;Humidity;BMP_temperature;BMP_pressure;BME280_temperature;BME280_humidity;BME280_pressure;Samples;Min_cycle;Max_cycle;Signal;HPM_P1;HPM_P2
2023/05/28 00:00:09;;;;;;;15.57;6.30;;;10.40;99.90;;;;;;1969090;28;20044;-63
2023/05/28 00:01:07;;;;;;;9.23;5.97;;;10.40;99.90;;;;;;1971025;28;20112;-63
2023/05/28 00:02:05;;;;;;;11.10;5.88;;;10.40;99.90;;;;;;1970947;28;20097;-66
2023/05/28 00:03:03;;;;;;;11.82;6.20;;;10.40;99.90;;;;;;1971385;28;20078;-63
2023/05/28 00:04:00;;;;;;;9.05;6.13;;;10.40;99.90;;;;;;1971777;28;20099;-63
2023/05/28 00:04:58;;;;;;;14.73;5.22;;;10.40;99.90;;;;;;1970499;28;20113;-63
2023/05/28 00:05:56;;;;;;;13.48;6.32;;;10.30;99.90;;;;;;1968798;28;20459;-63
2023/05/28 00:06:55;;;;;;;9.02;5.72;;;10.30;99.90;;;;;;1969613;28;20033;-62
2023/05/28 00:07:52;;;;;;;12.80;6.63;;;10.30;99.90;;;;;;1972040;28;20030;-63
2023/05/28 00:08:50;;;;;;;13.60;7.10;;;10.30;99.90;;;;;;1970502;28;20025;-62
2023/05/28 00:09:48;;;;;;;11.00;6.30;;;10.30;99.90;;;;;;1969758;28;20040;-62
2023/05/28 00:10:46;;;;;;;10.93;6.25;;;10.30;99.90;;;;;;1969487;28;20604;-62
2023/05/28 00:11:43;;;;;;;13.25;5.82;;;10.30;99.90;;;;;;1972032;28;20038;-63
2023/05/28 00:12:41;;;;;;;9.35;5.68;;;10.30;99.90;;;;;;1971128;28;20026;-62
2023/05/28 00:13:38;;;;;;;14.30;6.13;;;10.30;99.90;;;;;;1971558;28;20017;-62
2023/05/28 00:14:36;;;;;;;17.58;6.57;;;10.30;99.90;;;;;;1970328;28;20061;-63
2023/05/28 00:15:35;;;;;;;11.20;5.88;;;10.30;99.90;;;;;;1970206;28;20064;-62
2023/05/28 00:16:35;;;;;;;12.73;5.93;;;10.20;99.90;;;;;;1960547;28;20073;-62
2023/05/28 00:17:32;;;;;;;13.43;5.90;;;10.20;99.90;;;;;;1969561;28;20029;-63
2023/05/28 00:18:30;;;;;;;11.52;5.80;;;10.20;99.90;;;;;;1966080;28;20026;-62
2023/05/28 00:19:27;;;;;;;9.82;5.75;;;10.10;99.90;;;;;;1959479;28;20435;-62
2023/05/28 00:20:25;;;;;;;9.38;6.18;;;10.10;99.90;;;;;;1962034;28;20033;-62
2023/05/28 00:21:23;;;;;;;14.27;6.15;;;10.10;99.90;;;;;;1963477;28;20026;-63
2023/05/28 00:22:20;;;;;;;17.42;6.40;;;10.10;99.90;;;;;;1969760;28;20026;-62
2023/05/28 00:23:18;;;;;;;11.40;6.50;;;10.10;99.90;;;;;;1968293;28;20037;-63
2023/05/28 00:24:15;;;;;;;8.63;5.60;;;10.10;99.90;;;;;;1968686;28;20121;-63
2023/05/28 00:25:13;;;;;;;8.10;5.57;;;10.00;99.90;;;;;;1969135;28;20120;-63
2023/05/28 00:26:10;;;;;;;11.27;6.50;;;10.10;99.90;;;;;;1955454;28;20030;-63
2023/05/28 00:27:08;;;;;;;12.40;6.53;;;10.10;99.90;;;;;;1962492;28;20124;-65
2023/05/28 00:28:06;;;;;;;12.65;5.97;;;10.00;99.90;;;;;;1966285;28;20159;-63
2023/05/28 00:29:03;;;;;;;8.73;5.18;;;10.00;99.90;;;;;;1969671;28;20033;-63
2023/05/28 00:30:01;;;;;;;14.35;5.93;;;10.00;99.90;;;;;;1969906;28;20363;-63
2023/05/28 00:30:58;;;;;;;9.48;5.65;;;10.00;99.90;;;;;;1971098;28;20061;-63
2023/05/28 00:31:56;;;;;;;6.40;4.95;;;10.00;99.90;;;;;;1970077;28;20040;-63
2023/05/28 00:32:53;;;;;;;11.38;5.95;;;9.90;99.90;;;;;;1976076;28;20096;-63
2023/05/28 00:33:51;;;;;;;8.60;5.68;;;9.90;99.90;;;;;;1972053;28;20051;-63
2023/05/28 00:34:49;;;;;;;9.18;6.10;;;10.00;99.90;;;;;;1972507;28;20025;-62
2023/05/28 00:35:46;;;;;;;10.23;6.18;;;9.90;99.90;;;;;;1972371;28;20130;-63
2023/05/28 00:36:44;;;;;;;9.77;5.43;;;9.90;99.90;;;;;;1971724;28;21087;-63
2023/05/28 00:37:41;;;;;;;10.43;5.78;;;9.90;99.90;;;;;;1973536;28;20145;-62
2023/05/28 00:38:39;;;;;;;8.88;5.75;;;9.80;99.90;;;;;;1965511;28;20030;-62
2023/05/28 00:39:36;;;;;;;14.63;6.25;;;9.80;99.90;;;;;;1957018;28;20239;-63
2023/05/28 00:40:34;;;;;;;8.48;5.22;;;9.80;99.90;;;;;;1968348;28;20029;-62
2023/05/28 00:41:31;;;;;;;8.82;5.65;;;9.80;99.90;;;;;;1973460;28;20048;-62
2023/05/28 00:42:29;;;;;;;11.13;6.22;;;9.80;99.90;;;;;;1973618;28;20029;-62
2023/05/28 00:43:26;;;;;;;12.48;5.97;;;9.80;99.90;;;;;;1971363;28;20053;-63
2023/05/28 00:44:24;;;;;;;12.18;6.10;;;9.80;99.90;;;;;;1972493;28;20395;-63
2023/05/28 00:45:22;;;;;;;8.05;5.32;;;9.70;99.90;;;;;;1970864;28;20029;-63
2023/05/28 00:46:20;;;;;;;11.15;6.32;;;9.80;99.90;;;;;;1973767;28;20025;-62
2023/05/28 00:47:17;;;;;;;15.77;6.90;;;9.70;99.90;;;;;;1970291;28;20053;-63
2023/05/28 00:48:15;;;;;;;12.30;6.22;;;9.70;99.90;;;;;;1965187;28;20052;-63
2023/05/28 00:49:12;;;;;;;10.20;5.63;;;9.70;99.90;;;;;;1963668;28;20052;-63
2023/05/28 00:50:10;;;;;;;12.00;5.95;;;9.70;99.90;;;;;;1964973;28;20033;-63
2023/05/28 00:51:07;;;;;;;9.35;5.60;;;9.70;99.90;;;;;;1960449;28;20034;-63
2023/05/28 00:52:05;;;;;;;19.40;6.65;;;9.70;99.90;;;;;;1966918;28;20018;-63
2023/05/28 00:53:03;;;;;;;10.40;6.13;;;9.70;99.90;;;;;;1963101;28;20022;-63
2023/05/28 00:54:01;;;;;;;13.52;6.05;;;9.70;99.90;;;;;;1968062;28;20034;-63
2023/05/28 00:54:59;;;;;;;7.68;5.35;;;9.70;99.90;;;;;;1973299;28;20044;-63
2023/05/28 00:55:56;;;;;;;11.10;5.90;;;9.70;99.90;;;;;;1972395;28;20125;-62
2023/05/28 00:56:54;;;;;;;12.13;6.32;;;9.60;99.90;;;;;;1972208;28;20033;-63
2023/05/28 00:57:54;;;;;;;8.57;5.55;;;9.60;99.90;;;;;;1973930;28;21344;-63
2023/05/28 00:58:52;;;;;;;9.48;6.03;;;9.60;99.90;;;;;;1972463;28;20024;-63
2023/05/28 00:59:52;;;;;;;10.25;6.13;;;9.60;99.90;;;;;;1971463;28;20021;-62
2023/05/28 01:00:50;;;;;;;10.07;6.15;;;9.60;99.90;;;;;;1971923;28;20596;-63
2023/05/28 01:01:47;;;;;;;9.27;5.40;;;9.60;99.90;;;;;;1969017;28;20050;-63
2023/05/28 01:02:45;;;;;;;10.95;5.70;;;9.70;99.90;;;;;;1971206;28;20022;-62
2023/05/28 01:03:42;;;;;;;10.75;6.13;;;9.60;99.90;;;;;;1970626;28;20079;-62
2023/05/28 01:04:40;;;;;;;12.45;5.85;;;9.60;99.90;;;;;;1972720;28;20512;-62
2023/05/28 01:05:37;;;;;;;8.35;5.50;;;9.60;99.90;;;;;;1971261;28;20028;-62
2023/05/28 01:06:38;;;;;;;8.20;5.78;;;9.60;99.90;;;;;;1968311;28;20033;-62
2023/05/28 01:07:35;;;;;;;8.90;5.13;;;9.50;99.90;;;;;;1962551;28;20518;-62
2023/05/28 01:08:33;;;;;;;13.35;5.82;;;9.50;99.90;;;;;;1970483;28;20029;-63
2023/05/28 01:09:31;;;;;;;11.82;6.15;;;9.50;99.90;;;;;;1971089;28;20024;-62
2023/05/28 01:10:28;;;;;;;12.18;6.18;;;9.50;99.90;;;;;;1972528;28;20024;-63
2023/05/28 01:11:26;;;;;;;7.68;5.10;;;9.50;99.90;;;;;;1970482;28;20433;-62
2023/05/28 01:12:24;;;;;;;10.35;5.50;;;9.50;99.90;;;;;;1964304;28;20029;-63
2023/05/28 01:13:22;;;;;;;11.70;6.38;;;9.50;99.90;;;;;;1972799;28;20022;-62
2023/05/28 01:14:22;;;;;;;11.27;5.82;;;9.60;99.90;;;;;;1966550;28;20474;-63
2023/05/28 01:15:20;;;;;;;11.63;5.72;;;9.50;99.90;;;;;;1970765;28;20028;-63
2023/05/28 01:16:17;;;;;;;9.85;5.90;;;9.50;99.90;;;;;;1971079;28;20028;-62
2023/05/28 01:17:15;;;;;;;9.73;5.97;;;9.50;99.90;;;;;;1969472;28;20021;-63
2023/05/28 01:18:13;;;;;;;8.73;5.13;;;9.40;99.90;;;;;;1971357;28;20295;-63
2023/05/28 01:19:11;;;;;;;10.95;5.50;;;9.40;99.90;;;;;;1972283;28;20777;-63
2023/05/28 01:20:13;;;;;;;15.85;6.20;;;9.40;99.90;;;;;;1965854;28;20032;-63
2023/05/28 01:21:10;;;;;;;9.45;5.55;;;9.30;99.90;;;;;;1973676;28;20092;-63
2023/05/28 01:22:08;;;;;;;10.90;6.05;;;9.30;99.90;;;;;;1969940;28;20018;-63
2023/05/28 01:23:07;;;;;;;9.95;6.05;;;9.30;99.90;;;;;;1970538;28;20514;-63
2023/05/28 01:24:04;;;;;;;10.18;6.03;;;10.40;99.90;;;;;;1970203;28;20028;-63
2023/05/28 01:25:09;;;;;;;8.13;5.55;;;9.30;99.90;;;;;;1957075;28;20110;-63
2023/05/28 01:26:07;;;;;;;10.88;6.13;;;9.40;99.90;;;;;;1955353;28;20015;-63
2023/05/28 01:27:05;;;;;;;12.45;6.22;;;9.30;99.90;;;;;;1965570;28;20414;-62
2023/05/28 01:28:10;;;;;;;11.27;6.32;;;9.30;99.90;;;;;;1971843;28;20631;-63
2023/05/28 01:29:14;;;;;;;9.77;6.03;;;9.30;99.90;;;;;;1962958;28;20025;-63
2023/05/28 01:30:12;;;;;;;10.07;6.43;;;9.30;99.90;;;;;;1969637;28;20503;-63
2023/05/28 01:31:10;;;;;;;10.05;5.95;;;9.30;99.90;;;;;;1971693;28;20029;-63
2023/05/28 01:32:08;;;;;;;11.68;6.60;;;9.20;99.90;;;;;;1971358;28;20121;-62
2023/05/28 01:33:06;;;;;;;9.63;6.47;;;9.20;99.90;;;;;;1970759;28;20215;-63
2023/05/28 01:34:04;;;;;;;12.45;6.10;;;9.20;99.90;;;;;;1973030;28;20022;-63
2023/05/28 01:35:01;;;;;;;10.15;5.97;;;9.20;99.90;;;;;;1964224;28;20018;-63
2023/05/28 01:35:59;;;;;;;10.27;5.43;;;9.10;99.90;;;;;;1959049;28;20118;-63
2023/05/28 01:37:01;;;;;;;6.65;5.15;;;9.20;99.90;;;;;;1964221;28;20689;-62
2023/05/28 01:38:00;;;;;;;8.30;5.40;;;9.10;99.90;;;;;;1965157;28;20026;-63
2023/05/28 01:38:59;;;;;;;9.35;5.65;;;9.10;99.90;;;;;;1970121;28;20479;-63
2023/05/28 01:39:56;;;;;;;7.82;5.35;;;9.10;99.90;;;;;;1972003;28;20026;-62
2023/05/28 01:40:54;;;;;;;15.52;5.80;;;9.00;99.90;;;;;;1974977;28;20048;-63
2023/05/28 01:41:51;;;;;;;14.25;5.93;;;9.00;99.90;;;;;;1972334;28;20524;-63
2023/05/28 01:42:49;;;;;;;10.55;5.78;;;9.00;99.90;;;;;;1970771;28;20032;-63
2023/05/28 01:43:46;;;;;;;10.52;5.82;;;9.00;99.90;;;;;;1963390;28;20610;-63
2023/05/28 01:44:44;;;;;;;10.48;6.38;;;9.00;99.90;;;;;;1962443;28;20057;-63
2023/05/28 01:45:41;;;;;;;12.07;6.25;;;8.90;99.90;;;;;;1954832;28;20031;-63
2023/05/28 01:46:41;;;;;;;12.15;6.18;;;9.00;99.90;;;;;;1954710;28;20030;-63
2023/05/28 01:47:39;;;;;;;11.60;6.18;;;8.90;99.90;;;;;;1953906;28;20050;-63
2023/05/28 01:48:36;;;;;;;11.40;5.97;;;8.80;99.90;;;;;;1947306;28;20800;-63
2023/05/28 01:49:36;;;;;;;9.23;6.22;;;8.80;99.90;;;;;;1962161;28;20175;-63
2023/05/28 01:50:34;;;;;;;10.07;5.70;;;8.80;99.90;;;;;;1967732;28;20049;-63
2023/05/28 01:51:32;;;;;;;9.73;5.63;;;8.80;99.90;;;;;;1963882;28;20449;-63
2023/05/28 01:52:30;;;;;;;8.52;5.88;;;8.70;99.90;;;;;;1972797;28;20642;-63
2023/05/28 01:53:27;;;;;;;10.68;6.95;;;8.80;99.90;;;;;;1969548;28;20152;-63
2023/05/28 01:54:25;;;;;;;11.82;6.63;;;8.70;99.90;;;;;;1974230;28;20060;-63
2023/05/28 01:55:24;;;;;;;14.13;6.55;;;8.70;99.90;;;;;;1971691;28;20140;-63
2023/05/28 01:56:21;;;;;;;9.93;5.70;;;8.70;99.90;;;;;;1970315;28;20024;-63
2023/05/28 01:57:19;;;;;;;7.88;5.78;;;8.70;99.90;;;;;;1972216;28;20022;-62
2023/05/28 01:58:16;;;;;;;8.95;6.20;;;8.70;99.90;;;;;;1972258;28;20179;-62
2023/05/28 01:59:14;;;;;;;9.00;5.57;;;8.70;99.90;;;;;;1966133;28;20022;-62
2023/05/28 02:00:14;;;;;;;14.00;6.18;;;8.60;99.90;;;;;;1971542;28;20045;-62
2023/05/28 02:01:27;;;;;;;12.48;6.22;;;8.60;99.90;;;;;;1971699;28;20021;-62
2023/05/28 02:02:27;;;;;;;7.80;5.53;;;8.60;99.90;;;;;;1970255;28;20084;-62
2023/05/28 02:03:25;;;;;;;10.82;6.03;;;8.60;99.90;;;;;;1970994;28;20017;-62
2023/05/28 02:04:23;;;;;;;12.68;6.32;;;8.60;99.90;;;;;;1972520;28;20032;-62
2023/05/28 02:05:20;;;;;;;9.93;6.30;;;8.50;99.90;;;;;;1972222;28;20025;-62
2023/05/28 02:06:18;;;;;;;11.15;6.13;;;8.50;99.90;;;;;;1972026;28;20032;-62
2023/05/28 02:07:15;;;;;;;8.68;6.30;;;8.50;99.90;;;;;;1971776;28;20523;-61
2023/05/28 02:08:13;;;;;;;10.15;6.00;;;8.50;99.90;;;;;;1973455;28;20025;-62
2023/05/28 02:09:10;;;;;;;8.10;5.80;;;8.50;99.90;;;;;;1971547;28;20040;-63
2023/05/28 02:10:08;;;;;;;11.85;5.43;;;8.50;99.90;;;;;;1971222;28;20064;-62
2023/05/28 02:11:06;;;;;;;10.20;6.00;;;8.50;99.90;;;;;;1970294;28;20114;-62
2023/05/28 02:12:03;;;;;;;11.32;5.88;;;8.40;99.90;;;;;;1974444;28;20044;-63
2023/05/28 02:13:01;;;;;;;10.55;5.88;;;8.40;99.90;;;;;;1973493;28;20025;-62
2023/05/28 02:13:59;;;;;;;10.00;5.80;;;8.40;99.90;;;;;;1974258;28;20028;-62
2023/05/28 02:14:56;;;;;;;9.23;5.50;;;8.40;99.90;;;;;;1971516;28;20024;-62
2023/05/28 02:15:57;;;;;;;11.07;5.88;;;8.30;99.90;;;;;;1971601;28;20061;-62
2023/05/28 02:16:54;;;;;;;7.85;5.03;;;8.30;99.90;;;;;;1974472;28;20025;-63
2023/05/28 02:17:52;;;;;;;10.30;5.80;;;8.30;99.90;;;;;;1971278;28;20021;-62
2023/05/28 02:18:52;;;;;;;8.13;5.20;;;8.30;99.90;;;;;;1969927;28;20021;-62
2023/05/28 02:19:50;;;;;;;10.77;5.20;;;8.30;99.90;;;;;;1970926;28;20022;-62
2023/05/28 02:20:47;;;;;;;10.18;5.50;;;8.20;99.90;;;;;;1970832;28;20048;-63
2023/05/28 02:21:46;;;;;;;9.98;5.55;;;8.40;99.90;;;;;;1972374;28;20043;-62
2023/05/28 02:22:44;;;;;;;9.77;5.72;;;8.20;99.90;;;;;;1969726;28;20030;-62
2023/05/28 02:23:44;;;;;;;11.93;5.93;;;8.20;99.90;;;;;;1971382;28;20036;-62
2023/05/28 02:24:42;;;;;;;10.45;6.13;;;8.20;99.90;;;;;;1970205;28;20060;-62
2023/05/28 02:25:42;;;;;;;9.38;6.10;;;8.20;99.90;;;;;;1969725;28;20526;-62
2023/05/28 02:26:39;;;;;;;7.90;5.43;;;8.10;99.90;;;;;;1971935;28;20614;-61
2023/05/28 02:27:37;;;;;;;10.65;6.40;;;8.10;99.90;;;;;;1973402;28;20430;-62
2023/05/28 02:28:34;;;;;;;8.60;5.63;;;8.10;99.90;;;;;;1972214;28;20616;-62
2023/05/28 02:29:32;;;;;;;9.20;4.93;;;8.00;99.90;;;;;;1970146;28;20490;-62
2023/05/28 02:30:30;;;;;;;11.25;5.55;;;8.00;99.90;;;;;;1969993;28;20026;-62
2023/05/28 02:31:27;;;;;;;10.65;5.63;;;8.00;99.90;;;;;;1974234;28;20140;-62
2023/05/28 02:32:25;;;;;;;10.20;5.40;;;8.00;99.90;;;;;;1971331;28;20095;-62
2023/05/28 02:33:22;;;;;;;8.57;5.55;;;8.00;99.90;;;;;;1971676;28;20026;-62
2023/05/28 02:34:20;;;;;;;10.93;5.82;;;8.00;99.90;;;;;;1971198;28;20045;-62
2023/05/28 02:35:19;;;;;;;10.65;5.93;;;8.00;99.90;;;;;;1970685;28;20124;-62
2023/05/28 02:36:17;;;;;;;9.85;5.38;;;8.00;99.90;;;;;;1969726;28;20371;-62
2023/05/28 02:37:14;;;;;;;11.32;6.40;;;7.90;99.90;;;;;;1972543;28;20049;-62
2023/05/28 02:38:12;;;;;;;12.55;5.97;;;7.90;99.90;;;;;;1971328;28;20033;-63
2023/05/28 02:39:10;;;;;;;10.63;6.03;;;7.90;99.90;;;;;;1970972;28;20360;-61
2023/05/28 02:40:09;;;;;;;11.00;5.97;;;7.90;99.90;;;;;;1970670;28;20022;-62
2023/05/28 02:41:07;;;;;;;10.45;5.65;;;7.80;99.90;;;;;;1970831;28;20076;-62
2023/05/28 02:42:05;;;;;;;11.63;5.40;;;7.90;99.90;;;;;;1970532;28;20033;-62
2023/05/28 02:43:02;;;;;;;12.07;6.32;;;7.80;99.90;;;;;;1970169;28;20021;-62
2023/05/28 02:44:00;;;;;;;9.13;5.70;;;7.90;99.90;;;;;;1972097;28;20017;-62
2023/05/28 02:44:57;;;;;;;8.35;5.88;;;7.90;99.90;;;;;;1973212;28;20048;-62
2023/05/28 02:45:55;;;;;;;9.13;5.53;;;7.90;99.90;;;;;;1971875;28;20072;-62
2023/05/28 02:46:52;;;;;;;12.45;6.07;;;7.80;99.90;;;;;;1964206;28;20857;-62
2023/05/28 02:47:50;;;;;;;10.90;5.72;;;7.80;99.90;;;;;;1969032;28;20506;-62
2023/05/28 02:48:47;;;;;;;12.10;6.35;;;7.80;99.90;;;;;;1971970;28;20127;-62
2023/05/28 02:49:45;;;;;;;12.40;6.85;;;7.80;99.90;;;;;;1971012;28;20056;-62
2023/05/28 02:50:42;;;;;;;11.52;6.10;;;7.80;99.90;;;;;;1971417;28;20032;-62
2023/05/28 02:51:40;;;;;;;6.63;5.13;;;7.80;99.90;;;;;;1966227;28;20029;-62
2023/05/28 02:52:37;;;;;;;10.70;6.07;;;7.80;99.90;;;;;;1971407;28;20036;-62
2023/05/28 02:53:35;;;;;;;14.50;6.05;;;7.80;99.90;;;;;;1972770;28;20052;-62
2023/05/28 02:54:32;;;;;;;13.07;6.47;;;7.80;99.90;;;;;;1969534;28;20041;-62
2023/05/28 02:55:30;;;;;;;9.20;5.60;;;7.80;99.90;;;;;;1972190;28;20025;-62
2023/05/28 02:56:27;;;;;;;10.15;6.00;;;7.90;99.90;;;;;;1969978;28;20025;-62
2023/05/28 02:57:25;;;;;;;10.52;5.95;;;7.90;99.90;;;;;;1970482;28;20430;-62
2023/05/28 02:58:24;;;;;;;9.15;5.90;;;7.90;99.90;;;;;;1971026;28;20022;-62
2023/05/28 02:59:21;;;;;;;9.82;7.10;;;7.90;99.90;;;;;;1974257;28;20014;-62
2023/05/28 03:00:19;;;;;;;12.82;6.00;;;7.90;99.90;;;;;;1971133;28;20429;-62
2023/05/28 03:01:17;;;;;;;7.95;5.43;;;7.90;99.90;;;;;;1971083;28;20097;-62
2023/05/28 03:02:14;;;;;;;8.43;5.53;;;7.80;99.90;;;;;;1971230;28;20022;-62
2023/05/28 03:03:12;;;;;;;8.32;5.95;;;8.30;99.90;;;;;;1973618;28;20029;-62
2023/05/28 03:04:09;;;;;;;8.65;5.80;;;7.90;99.90;;;;;;1971223;28;20017;-62
2023/05/28 03:05:07;;;;;;;11.93;6.13;;;7.90;99.90;;;;;;1968379;28;20018;-62
2023/05/28 03:06:06;;;;;;;9.13;5.88;;;7.90;99.90;;;;;;1972882;28;20130;-62
2023/05/28 03:07:04;;;;;;;9.40;5.70;;;7.90;99.90;;;;;;1970807;28;20101;-62
2023/05/28 03:08:02;;;;;;;9.23;6.13;;;7.90;99.90;;;;;;1970444;28;20025;-62
2023/05/28 03:08:59;;;;;;;10.07;5.57;;;7.90;99.90;;;;;;1970639;28;20056;-62
2023/05/28 03:09:57;;;;;;;11.52;5.82;;;7.90;99.90;;;;;;1972843;28;20018;-62
2023/05/28 03:10:55;;;;;;;6.88;5.18;;;7.90;99.90;;;;;;1969297;28;20481;-62
2023/05/28 03:11:52;;;;;;;8.43;5.15;;;7.90;99.90;;;;;;1971870;28;20033;-62
2023/05/28 03:12:50;;;;;;;14.88;6.03;;;7.90;99.90;;;;;;1971274;28;20142;-62
2023/05/28 03:13:47;;;;;;;7.82;5.53;;;7.70;99.90;;;;;;1970000;28;20033;-63
2023/05/28 03:14:45;;;;;;;6.90;5.18;;;7.70;99.90;;;;;;1972525;28;20025;-62
2023/05/28 03:15:42;;;;;;;9.43;4.78;;;7.80;99.90;;;;;;1971795;28;20017;-62
2023/05/28 03:16:40;;;;;;;11.07;5.80;;;7.70;99.90;;;;;;1968793;28;20032;-62
2023/05/28 03:17:37;;;;;;;8.80;5.50;;;7.70;99.90;;;;;;1968674;28;20036;-62
2023/05/28 03:18:35;;;;;;;11.57;5.43;;;7.70;99.90;;;;;;1969927;28;20022;-62
2023/05/28 03:19:32;;;;;;;8.57;5.65;;;7.80;99.90;;;;;;1972495;28;20108;-62
2023/05/28 03:20:30;;;;;;;9.48;6.18;;;7.80;99.90;;;;;;1971959;28;20048;-62
2023/05/28 03:21:27;;;;;;;13.60;6.30;;;7.80;99.90;;;;;;1973568;28;20402;-62
2023/05/28 03:22:25;;;;;;;14.27;7.05;;;7.80;99.90;;;;;;1971725;28;20109;-62
2023/05/28 03:23:22;;;;;;;9.15;6.35;;;7.80;99.90;;;;;;1973161;28;20060;-62
2023/05/28 03:24:20;;;;;;;9.02;6.05;;;7.70;99.90;;;;;;1969521;28;20935;-62
2023/05/28 03:25:17;;;;;;;8.15;5.57;;;7.70;99.90;;;;;;1975003;28;20038;-62
2023/05/28 03:26:15;;;;;;;9.00;5.40;;;7.80;99.90;;;;;;1970133;28;20474;-62
2023/05/28 03:27:12;;;;;;;12.88;6.63;;;7.70;99.90;;;;;;1970584;28;20033;-62
2023/05/28 03:28:10;;;;;;;11.80;6.07;;;7.60;99.90;;;;;;1970361;28;20105;-62
2023/05/28 03:29:07;;;;;;;11.65;6.25;;;7.60;99.90;;;;;;1970957;28;20021;-63
2023/05/28 03:30:07;;;;;;;12.20;6.35;;;7.70;99.90;;;;;;1971454;28;20018;-62
2023/05/28 03:31:05;;;;;;;7.85;5.78;;;7.70;99.90;;;;;;1970484;28;20028;-62
2023/05/28 03:32:02;;;;;;;10.68;6.53;;;7.80;99.90;;;;;;1972132;28;20080;-62
2023/05/28 03:33:00;;;;;;;11.13;6.53;;;7.70;99.90;;;;;;1972997;28;20121;-62
2023/05/28 03:33:57;;;;;;;14.68;6.45;;;7.70;99.90;;;;;;1968875;28;20026;-62
2023/05/28 03:34:55;;;;;;;8.32;5.85;;;7.60;99.90;;;;;;1970735;28;20021;-62
2023/05/28 03:35:52;;;;;;;10.93;5.85;;;7.60;99.90;;;;;;1970473;28;20029;-62
2023/05/28 03:36:50;;;;;;;11.23;6.43;;;7.60;99.90;;;;;;1972057;28;20030;-62
2023/05/28 03:37:48;;;;;;;8.88;6.63;;;7.60;99.90;;;;;;1970734;28;20597;-61
2023/05/28 03:38:46;;;;;;;10.77;5.80;;;7.60;99.90;;;;;;1972219;28;20026;-62
2023/05/28 03:39:43;;;;;;;12.00;6.65;;;7.60;99.90;;;;;;1970721;28;20021;-62
2023/05/28 03:40:41;;;;;;;9.07;5.63;;;7.70;99.90;;;;;;1970478;28;20087;-62
2023/05/28 03:41:39;;;;;;;9.95;6.20;;;7.70;99.90;;;;;;1973143;28;20029;-62
2023/05/28 03:42:37;;;;;;;14.63;6.18;;;7.60;99.90;;;;;;1968846;28;20033;-62
2023/05/28 03:43:35;;;;;;;9.18;6.13;;;7.70;99.90;;;;;;1969792;28;20025;-62
2023/05/28 03:44:34;;;;;;;9.40;5.55;;;7.70;99.90;;;;;;1969725;28;20459;-62
2023/05/28 03:45:31;;;;;;;9.20;6.68;;;7.70;99.90;;;;;;1970596;28;20060;-62
2023/05/28 03:46:29;;;;;;;8.52;6.25;;;7.70;99.90;;;;;;1971475;28;20122;-62
2023/05/28 03:47:30;;;;;;;10.25;6.28;;;7.70;99.90;;;;;;1971769;28;20414;-62
2023/05/28 03:48:28;;;;;;;10.55;6.70;;;7.70;99.90;;;;;;1971698;28;20176;-61
2023/05/28 03:49:25;;;;;;;9.73;6.18;;;8.00;99.90;;;;;;1970804;28;20033;-63
2023/05/28 03:50:24;;;;;;;12.80;6.50;;;7.70;99.90;;;;;;1971363;28;20026;-62
2023/05/28 03:51:23;;;;;;;8.90;5.85;;;7.70;99.90;;;;;;1971914;28;20498;-62
2023/05/28 03:52:20;;;;;;;14.27;6.43;;;7.60;99.90;;;;;;1970124;28;20028;-62
2023/05/28 03:53:18;;;;;;;9.80;5.95;;;7.60;99.90;;;;;;1971547;28;20025;-62
2023/05/28 03:54:15;;;;;;;12.73;6.60;;;7.60;99.90;;;;;;1969704;28;20029;-62
2023/05/28 03:55:13;;;;;;;10.65;7.00;;;7.60;99.90;;;;;;1970864;28;20083;-62
2023/05/28 03:56:11;;;;;;;13.93;6.03;;;7.60;99.90;;;;;;1972710;28;20108;-62
2023/05/28 03:57:08;;;;;;;10.15;6.20;;;7.60;99.90;;;;;;1968812;28;20026;-62
2023/05/28 03:58:06;;;;;;;9.00;6.50;;;7.60;99.90;;;;;;1970276;28;20057;-62
2023/05/28 03:59:03;;;;;;;12.15;6.07;;;7.60;99.90;;;;;;1969522;28;20042;-62
2023/05/28 04:00:01;;;;;;;10.23;6.07;;;7.50;99.90;;;;;;1970653;28;20508;-62
2023/05/28 04:00:59;;;;;;;10.02;6.25;;;7.50;99.90;;;;;;1971683;28;20117;-62
2023/05/28 04:01:57;;;;;;;11.48;6.90;;;7.50;99.90;;;;;;1972146;28;20037;-62
2023/05/28 04:02:55;;;;;;;10.25;5.95;;;7.60;99.90;;;;;;1970544;28;20029;-62
2023/05/28 04:03:54;;;;;;;10.13;6.75;;;7.50;99.90;;;;;;1970653;28;20029;-62
2023/05/28 04:04:51;;;;;;;11.98;6.72;;;7.60;99.90;;;;;;1972815;28;20091;-62
2023/05/28 04:05:49;;;;;;;12.40;5.90;;;7.60;99.90;;;;;;1970013;28;20033;-62
2023/05/28 04:06:47;;;;;;;10.20;6.25;;;7.60;99.90;;;;;;1971155;28;20044;-61
2023/05/28 04:07:45;;;;;;;7.93;6.15;;;7.60;99.90;;;;;;1972991;28;20036;-62
2023/05/28 04:08:42;;;;;;;14.20;6.45;;;7.70;99.90;;;;;;1972007;28;20474;-62
2023/05/28 04:09:40;;;;;;;7.97;6.07;;;7.70;99.90;;;;;;1971854;28;20028;-62
2023/05/28 04:10:37;;;;;;;14.52;6.38;;;7.60;99.90;;;;;;1967764;28;20045;-62
2023/05/28 04:11:37;;;;;;;10.73;7.07;;;7.70;99.90;;;;;;1972158;28;20041;-62
2023/05/28 04:12:34;;;;;;;17.15;6.60;;;7.70;99.90;;;;;;1968943;28;20049;-62
2023/05/28 04:13:32;;;;;;;9.50;6.32;;;7.70;99.90;;;;;;1972400;28;20371;-62
2023/05/28 04:14:29;;;;;;;11.15;6.47;;;7.70;99.90;;;;;;1968742;28;20072;-62
2023/05/28 04:15:27;;;;;;;15.32;6.82;;;7.70;99.90;;;;;;1969033;28;20044;-62
2023/05/28 04:16:24;;;;;;;12.77;7.47;;;7.70;99.90;;;;;;1971264;28;20143;-62
2023/05/28 04:17:22;;;;;;;10.10;6.38;;;7.70;99.90;;;;;;1968957;28;20425;-62
2023/05/28 04:18:19;;;;;;;10.63;6.20;;;7.70;99.90;;;;;;1968743;28;20082;-62
2023/05/28 04:19:17;;;;;;;12.55;6.68;;;7.70;99.90;;;;;;1970155;28;20029;-62
2023/05/28 04:20:14;;;;;;;12.25;6.40;;;7.70;99.90;;;;;;1967904;28;20052;-62
2023/05/28 04:21:12;;;;;;;11.90;7.10;;;7.80;99.90;;;;;;1969153;28;20368;-62
2023/05/28 04:22:10;;;;;;;10.40;6.32;;;7.80;99.90;;;;;;1969039;28;20140;-62
2023/05/28 04:23:08;;;;;;;12.55;6.45;;;7.80;99.90;;;;;;1969180;28;20080;-63
2023/05/28 04:24:05;;;;;;;10.07;6.13;;;7.90;99.90;;;;;;1970987;28;20071;-61
2023/05/28 04:25:03;;;;;;;9.98;6.40;;;7.90;99.90;;;;;;1968007;28;20062;-62
2023/05/28 04:26:01;;;;;;;9.10;6.65;;;7.90;99.90;;;;;;1968229;28;20036;-62
2023/05/28 04:26:59;;;;;;;14.13;6.80;;;7.80;99.90;;;;;;1969725;28;20029;-62
2023/05/28 04:27:58;;;;;;;14.55;6.80;;;7.90;99.90;;;;;;1968295;28;20017;-62
2023/05/28 04:28:55;;;;;;;13.18;6.75;;;7.80;99.90;;;;;;1970260;28;20595;-62
2023/05/28 04:29:54;;;;;;;12.90;6.88;;;7.90;99.90;;;;;;1968838;28;20028;-62
2023/05/28 04:30:52;;;;;;;12.63;6.70;;;7.90;99.90;;;;;;1973074;28;20443;-62
2023/05/28 04:31:50;;;;;;;8.20;6.00;;;7.90;99.90;;;;;;1969554;28;20040;-62
2023/05/28 04:32:48;;;;;;;14.07;6.40;;;8.00;99.90;;;;;;1971283;28;20079;-62
2023/05/28 04:33:46;;;;;;;11.60;6.95;;;8.00;99.90;;;;;;1969686;28;20022;-62
2023/05/28 04:34:43;;;;;;;9.25;6.45;;;8.00;99.90;;;;;;1969910;28;20029;-62
2023/05/28 04:35:41;;;;;;;7.72;6.15;;;8.00;99.90;;;;;;1971104;28;20045;-62
2023/05/28 04:36:38;;;;;;;9.27;6.38;;;7.80;99.90;;;;;;1970456;28;20413;-62
2023/05/28 04:37:39;;;;;;;11.38;6.45;;;8.00;99.90;;;;;;1969365;28;20060;-62
2023/05/28 04:38:36;;;;;;;14.45;7.13;;;8.10;99.90;;;;;;1971012;28;20521;-62
2023/05/28 04:39:34;;;;;;;8.77;6.07;;;8.10;99.90;;;;;;1969584;28;20061;-62
2023/05/28 04:40:32;;;;;;;10.82;6.68;;;8.10;99.90;;;;;;1971119;28;20018;-62
2023/05/28 04:41:30;;;;;;;8.43;6.38;;;8.20;99.90;;;;;;1969807;28;20076;-62
2023/05/28 04:42:28;;;;;;;10.27;6.50;;;8.20;99.90;;;;;;1971164;28;20506;-62
2023/05/28 04:43:26;;;;;;;12.35;6.75;;;8.20;99.90;;;;;;1972772;28;20091;-62
2023/05/28 04:44:26;;;;;;;11.30;6.63;;;8.20;99.90;;;;;;1970700;28;20040;-63
2023/05/28 04:45:24;;;;;;;9.70;6.78;;;8.30;99.90;;;;;;1972355;28;20033;-62
2023/05/28 04:46:25;;;;;;;12.70;6.55;;;8.40;99.90;;;;;;1969599;28;20427;-62
2023/05/28 04:47:22;;;;;;;12.95;7.20;;;8.40;99.90;;;;;;1972789;28;20138;-62
2023/05/28 04:48:20;;;;;;;11.75;7.30;;;8.40;99.90;;;;;;1968975;28;20036;-62
2023/05/28 04:49:17;;;;;;;13.57;7.25;;;8.40;99.90;;;;;;1973274;28;20119;-63
2023/05/28 04:50:15;;;;;;;10.52;6.70;;;8.40;99.90;;;;;;1971439;28;20107;-62
2023/05/28 04:51:13;;;;;;;13.32;6.95;;;8.50;99.90;;;;;;1973330;28;20129;-62
2023/05/28 04:52:10;;;;;;;9.55;6.97;;;8.50;99.90;;;;;;1969599;28;20022;-62
2023/05/28 04:53:08;;;;;;;14.45;7.50;;;8.60;99.90;;;;;;1971555;28;20029;-63
2023/05/28 04:54:06;;;;;;;9.13;6.65;;;8.60;99.90;;;;;;1969552;28;20022;-62
2023/05/28 04:55:04;;;;;;;14.98;7.30;;;8.60;99.90;;;;;;1972147;28;20021;-62
2023/05/28 04:56:02;;;;;;;11.32;7.15;;;8.60;99.90;;;;;;1970664;28;21142;-62
2023/05/28 04:56:59;;;;;;;10.93;7.32;;;8.70;99.90;;;;;;1971168;28;20072;-63
2023/05/28 04:57:57;;;;;;;14.70;6.80;;;8.70;99.90;;;;;;1972001;28;20029;-62
2023/05/28 04:58:55;;;;;;;10.30;6.75;;;8.80;99.90;;;;;;1972334;28;20026;-62
2023/05/28 04:59:53;;;;;;;13.38;6.78;;;8.80;99.90;;;;;;1971288;28;20364;-62
2023/05/28 05:00:52;;;;;;;11.77;7.10;;;8.80;99.90;;;;;;1970950;28;20063;-62
2023/05/28 05:01:49;;;;;;;10.63;6.35;;;8.90;99.90;;;;;;1972234;28;20029;-62
2023/05/28 05:02:47;;;;;;;12.25;6.40;;;8.90;99.90;;;;;;1969681;28;20114;-62